createdAt,value
2022-10-28T00:00:32.271Z,17.52
2022-10-28T00:03:02.741Z,17.87
2022-10-28T00:05:33.889Z,17.60
2022-10-28T00:08:01.006Z,16.92
2022-10-28T00:10:27.842Z,16.80
2022-10-28T00:12:54.709Z,18.52
2022-10-28T00:15:21.799Z,19.00
2022-10-28T00:17:48.663Z,18.98
2022-10-28T00:20:18.317Z,16.42
2022-10-28T00:22:45.434Z,17.70
2022-10-28T00:25:12.277Z,17.35
2022-10-28T00:27:39.224Z,18.23
2022-10-28T00:30:06.789Z,18.08
2022-10-28T00:32:33.661Z,19.42
2022-10-28T00:35:00.528Z,17.67
2022-10-28T00:37:27.641Z,17.25
2022-10-28T00:39:54.480Z,18.02
2022-10-28T00:42:22.327Z,19.25
2022-10-28T00:44:56.465Z,18.27
2022-10-28T00:47:53.042Z,18.35
2022-10-28T00:50:44.063Z,16.65
2022-10-28T00:53:24.036Z,15.95
2022-10-28T00:55:51.314Z,17.75
2022-10-28T00:58:19.286Z,17.70
2022-10-28T01:00:46.612Z,17.92
2022-10-28T01:03:13.718Z,17.67
2022-10-28T01:05:42.338Z,16.37
2022-10-28T01:08:09.269Z,17.80
2022-10-28T01:10:58.066Z,17.70
2022-10-28T01:13:33.725Z,17.35
2022-10-28T01:16:31.866Z,17.67
2022-10-28T01:19:20.343Z,17.90
2022-10-28T01:21:56.309Z,16.58
2022-10-28T01:25:01.023Z,16.37
2022-10-28T01:27:51.329Z,17.12
2022-10-28T01:30:20.397Z,16.67
2022-10-28T01:33:22.318Z,16.90
2022-10-28T01:35:57.562Z,17.23
2022-10-28T01:38:36.326Z,16.35
2022-10-28T01:41:16.906Z,16.85
2022-10-28T01:43:59.061Z,17.52
2022-10-28T01:46:34.970Z,18.45
2022-10-28T01:49:16.909Z,17.65
2022-10-28T01:51:48.583Z,18.12
2022-10-28T01:54:18.925Z,17.92
2022-10-28T01:56:47.106Z,17.85
2022-10-28T01:59:17.981Z,15.57
2022-10-28T02:01:45.184Z,17.70
2022-10-28T02:04:12.461Z,17.77
2022-10-28T02:06:41.266Z,19.35
2022-10-28T02:09:20.259Z,17.92
2022-10-28T02:12:24.804Z,18.73
2022-10-28T02:18:21.684Z,19.27
2022-10-28T02:20:59.105Z,19.83
2022-10-28T02:23:28.747Z,20.25
2022-10-28T02:26:06.187Z,20.23
2022-10-28T02:28:56.624Z,20.33
2022-10-28T02:31:34.573Z,19.35
2022-10-28T02:34:06.085Z,20.15
2022-10-28T02:36:36.549Z,20.15
2022-10-28T02:39:04.723Z,19.10
2022-10-28T02:41:37.742Z,18.92
2022-10-28T02:44:08.703Z,18.50
2022-10-28T02:46:36.937Z,20.40
2022-10-28T02:49:07.562Z,20.60
2022-10-28T02:51:40.374Z,20.15
2022-10-28T02:54:10.155Z,19.92
2022-10-28T02:56:45.629Z,19.10
2022-10-28T02:59:13.207Z,20.02
2022-10-28T03:01:41.157Z,20.15
2022-10-28T03:04:08.258Z,20.12
2022-10-28T03:06:35.388Z,20.17
2022-10-28T03:09:02.243Z,20.62
2022-10-28T03:11:29.117Z,19.87
2022-10-28T03:13:56.246Z,19.23
2022-10-28T03:16:23.122Z,19.50
2022-10-28T03:18:50.005Z,17.90
2022-10-28T03:21:17.114Z,18.73
2022-10-28T03:23:43.957Z,18.92
2022-10-28T03:26:10.814Z,19.83
2022-10-28T03:28:37.970Z,18.15
2022-10-28T03:31:05.261Z,17.80
2022-10-28T03:33:32.112Z,18.50
2022-10-28T03:35:59.186Z,18.67
2022-10-28T03:38:26.027Z,18.40
2022-10-28T03:40:52.956Z,17.92
2022-10-28T03:43:20.062Z,19.23
2022-10-28T03:45:47.730Z,18.25
2022-10-28T03:48:14.631Z,18.52
2022-10-28T03:50:41.733Z,20.00
2022-10-28T03:53:08.626Z,18.58
2022-10-28T03:55:35.471Z,17.12
2022-10-28T03:58:02.656Z,18.08
2022-10-28T04:00:29.865Z,18.23
2022-10-28T04:02:57.246Z,17.77
2022-10-28T04:05:24.262Z,18.30
2022-10-28T04:07:51.210Z,17.90
2022-10-28T04:10:18.313Z,19.83
2022-10-28T04:12:45.183Z,18.87
2022-10-28T04:15:12.017Z,19.58
2022-10-28T04:17:39.173Z,19.00
2022-10-28T04:20:06.536Z,18.67
2022-10-28T04:22:33.456Z,19.27
2022-10-28T04:25:00.549Z,19.02
2022-10-28T04:27:27.389Z,18.20
2022-10-28T04:29:54.247Z,18.27
2022-10-28T04:32:21.341Z,19.83
2022-10-28T04:34:51.204Z,19.85
2022-10-28T04:37:20.924Z,19.20
2022-10-28T04:39:50.874Z,20.40
2022-10-28T04:42:20.514Z,18.95
2022-10-28T04:44:50.458Z,20.62
2022-10-28T04:47:17.646Z,19.50
2022-10-28T04:49:46.990Z,21.17
2022-10-28T04:52:15.749Z,19.20
2022-10-28T04:54:42.902Z,20.33
2022-10-28T04:57:09.805Z,19.55
2022-10-28T04:59:37.496Z,20.73
2022-10-28T05:02:04.446Z,19.92
2022-10-28T05:04:31.425Z,19.83
2022-10-28T05:06:58.542Z,18.87
2022-10-28T05:09:25.386Z,20.25
2022-10-28T05:11:52.234Z,20.30
2022-10-28T05:14:19.358Z,19.17
2022-10-28T05:16:46.214Z,19.02
2022-10-28T05:19:13.064Z,19.17
2022-10-28T05:21:40.174Z,20.58
2022-10-28T05:24:07.097Z,18.12
2022-10-28T05:26:33.941Z,20.40
2022-10-28T05:29:01.042Z,19.73
2022-10-28T05:31:27.899Z,18.40
2022-10-28T05:33:54.752Z,17.83
2022-10-28T05:36:21.939Z,18.70
2022-10-28T05:38:49.735Z,16.95
2022-10-28T05:41:16.641Z,17.00
2022-10-28T05:43:43.746Z,18.15
2022-10-28T05:46:10.702Z,17.83
2022-10-28T05:48:37.566Z,17.83
2022-10-28T05:51:04.718Z,16.87
2022-10-28T05:53:31.610Z,19.20
2022-10-28T05:55:58.475Z,19.58
2022-10-28T05:58:25.597Z,16.65
2022-10-28T06:00:52.506Z,17.95
2022-10-28T06:03:19.676Z,15.98
2022-10-28T06:05:46.583Z,15.20
2022-10-28T06:08:14.090Z,15.02
2022-10-28T06:10:41.595Z,14.40
2022-10-28T06:13:07.595Z,14.70
2022-10-28T06:15:34.487Z,15.00
2022-10-28T06:18:01.618Z,12.98
2022-10-28T06:20:28.543Z,13.13
2022-10-28T06:22:56.199Z,13.77
2022-10-28T06:25:24.897Z,13.45
2022-10-28T06:27:56.213Z,12.55
2022-10-28T06:30:25.017Z,12.90
2022-10-28T06:32:55.024Z,12.95
2022-10-28T06:35:21.905Z,12.75
2022-10-28T06:37:55.774Z,15.60
2022-10-28T06:40:23.728Z,13.18
2022-10-28T06:42:58.149Z,13.20
2022-10-28T06:45:26.268Z,13.25
2022-10-28T06:47:58.650Z,12.55
2022-10-28T06:52:52.669Z,12.88
2022-10-28T06:55:19.813Z,11.73
2022-10-28T06:57:46.676Z,12.50
2022-10-28T07:00:14.113Z,12.70
2022-10-28T07:02:44.273Z,12.52
2022-10-28T07:05:12.233Z,12.15
2022-10-28T07:07:39.055Z,12.75
2022-10-28T07:10:06.368Z,11.45
2022-10-28T07:12:33.326Z,10.73
2022-10-28T07:15:00.200Z,11.25
2022-10-28T07:17:27.320Z,11.48
2022-10-28T07:19:54.175Z,10.93
2022-10-28T07:22:25.346Z,10.88
2022-10-28T07:24:52.804Z,9.88
2022-10-28T07:27:19.695Z,11.05
2022-10-28T07:29:49.369Z,11.50
2022-10-28T07:32:19.429Z,11.82
2022-10-28T07:34:49.350Z,11.57
2022-10-28T07:37:19.321Z,9.55
2022-10-28T07:39:48.928Z,10.63
2022-10-28T07:42:15.852Z,10.45
2022-10-28T07:44:42.935Z,10.52
2022-10-28T07:47:09.781Z,10.30
2022-10-28T07:49:36.651Z,9.38
2022-10-28T07:52:03.811Z,9.55
2022-10-28T07:54:31.908Z,8.68
2022-10-28T07:56:58.756Z,8.93
2022-10-28T07:59:26.965Z,9.15
2022-10-28T08:01:54.596Z,9.65
2022-10-28T08:04:21.774Z,9.85
2022-10-28T08:06:48.709Z,11.00
2022-10-28T08:09:16.637Z,8.82
2022-10-28T08:11:43.780Z,9.32
2022-10-28T08:14:10.844Z,8.57
2022-10-28T08:16:37.703Z,9.57
2022-10-28T08:19:07.704Z,9.20
2022-10-28T08:21:34.768Z,9.70
2022-10-28T08:24:01.681Z,9.48
2022-10-28T08:26:28.861Z,9.93
2022-10-28T08:28:55.853Z,9.23
2022-10-28T08:31:22.748Z,11.18
2022-10-28T08:33:49.861Z,10.63
2022-10-28T08:36:17.172Z,9.52
2022-10-28T08:38:45.642Z,10.27
2022-10-28T08:41:15.984Z,10.70
2022-10-28T08:43:57.028Z,11.10
2022-10-28T08:46:34.146Z,9.77
2022-10-28T08:49:09.663Z,9.95
2022-10-28T08:51:38.822Z,9.00
2022-10-28T08:54:31.107Z,9.15
2022-10-28T08:57:00.559Z,9.73
2022-10-28T08:59:38.562Z,9.85
2022-10-28T09:02:11.708Z,8.60
2022-10-28T09:04:43.891Z,8.75
2022-10-28T09:07:18.117Z,9.20
2022-10-28T09:09:48.172Z,8.43
2022-10-28T09:12:34.134Z,9.88
2022-10-28T09:15:10.240Z,8.40
2022-10-28T09:17:43.403Z,9.77
2022-10-28T09:20:19.628Z,8.75
2022-10-28T09:23:12.867Z,10.45
2022-10-28T09:25:48.833Z,9.93
2022-10-28T09:28:15.913Z,9.07
2022-10-28T09:31:03.695Z,9.50
2022-10-28T09:33:51.337Z,10.40
2022-10-28T09:36:29.292Z,8.70
2022-10-28T09:38:58.258Z,9.63
2022-10-28T09:41:33.941Z,10.63
2022-10-28T09:44:10.821Z,10.23
2022-10-28T09:46:38.539Z,10.10
2022-10-28T09:49:11.871Z,10.18
2022-10-28T09:51:48.121Z,9.70
2022-10-28T09:54:15.230Z,10.35
2022-10-28T09:56:42.236Z,8.95
2022-10-28T09:59:13.570Z,10.10
2022-10-28T10:01:42.368Z,9.75
2022-10-28T10:04:21.285Z,9.55
2022-10-28T10:06:52.275Z,9.20
2022-10-28T10:09:23.852Z,9.90
2022-10-28T10:11:53.593Z,10.43
2022-10-28T10:14:37.139Z,9.65
2022-10-28T10:17:07.860Z,10.60
2022-10-28T10:19:57.602Z,9.40
2022-10-28T10:22:44.523Z,9.23
2022-10-28T10:25:17.627Z,10.23
2022-10-28T10:27:57.491Z,9.98
2022-10-28T10:30:29.283Z,10.60
2022-10-28T10:32:57.103Z,10.57
2022-10-28T10:35:26.962Z,10.15
2022-10-28T10:37:56.509Z,11.43
2022-10-28T10:40:33.567Z,11.85
2022-10-28T10:43:18.844Z,10.82
2022-10-28T10:46:00.655Z,10.85
2022-10-28T10:48:32.821Z,10.82
2022-10-28T10:51:05.621Z,10.20
2022-10-28T10:53:32.916Z,10.10
2022-10-28T10:56:05.341Z,10.48
2022-10-28T10:58:38.616Z,11.15
2022-10-28T11:01:07.556Z,12.25
2022-10-28T11:03:49.605Z,11.10
2022-10-28T11:06:39.394Z,11.48
2022-10-28T11:09:16.264Z,11.68
2022-10-28T11:11:43.170Z,11.35
2022-10-28T11:14:10.141Z,13.13
2022-10-28T11:16:54.462Z,10.98
2022-10-28T11:19:31.224Z,10.68
2022-10-28T11:22:06.845Z,11.15
2022-10-28T11:25:10.840Z,11.27
2022-10-28T11:27:56.314Z,10.45
2022-10-28T11:30:58.975Z,10.10
2022-10-28T11:33:43.775Z,11.02
2022-10-28T11:36:19.605Z,10.45
2022-10-28T11:39:05.029Z,11.43
2022-10-28T11:42:01.596Z,11.48
2022-10-28T11:44:51.037Z,9.90
2022-10-28T11:47:24.228Z,10.60
2022-10-28T11:50:09.141Z,10.95
2022-10-28T11:53:02.351Z,11.00
2022-10-28T11:55:32.117Z,11.35
2022-10-28T11:58:11.373Z,11.93
2022-10-28T12:00:54.716Z,11.93
2022-10-28T12:03:54.905Z,12.40
2022-10-28T12:06:54.138Z,11.02
2022-10-28T12:09:40.000Z,11.95
2022-10-28T12:12:39.731Z,11.77
2022-10-28T12:15:33.411Z,12.57
2022-10-28T12:18:13.836Z,12.32
2022-10-28T12:20:51.891Z,11.25
2022-10-28T12:23:20.418Z,12.80
2022-10-28T12:25:50.233Z,12.20
2022-10-28T12:28:24.293Z,12.13
2022-10-28T12:30:52.360Z,12.05
2022-10-28T12:33:27.286Z,13.15
2022-10-28T12:36:34.568Z,12.20
2022-10-28T12:39:12.542Z,13.27
2022-10-28T12:41:47.610Z,12.32
2022-10-28T12:44:20.553Z,12.70
2022-10-28T12:47:20.772Z,12.80
2022-10-28T12:50:08.877Z,12.60
2022-10-28T12:52:49.332Z,12.57
2022-10-28T12:55:21.223Z,13.07
2022-10-28T12:57:53.591Z,13.45
2022-10-28T13:00:32.685Z,13.43
2022-10-28T13:03:02.626Z,14.50
2022-10-28T13:05:36.531Z,14.53
2022-10-28T13:08:27.009Z,16.35
2022-10-28T13:11:21.314Z,15.13
2022-10-28T13:14:08.598Z,14.02
2022-10-28T13:17:01.014Z,15.52
2022-10-28T13:19:59.088Z,13.40
2022-10-28T13:22:34.056Z,14.23
2022-10-28T13:25:07.942Z,14.40
2022-10-28T13:30:09.618Z,15.45
2022-10-28T13:32:39.069Z,14.97
2022-10-28T13:35:21.962Z,16.17
2022-10-28T13:37:50.251Z,14.45
2022-10-28T13:40:30.991Z,14.90
2022-10-28T13:43:01.726Z,14.73
2022-10-28T13:45:49.906Z,15.07
2022-10-28T13:48:28.530Z,16.62
2022-10-28T13:51:10.856Z,15.68
2022-10-28T13:53:46.543Z,17.20
2022-10-28T13:56:28.623Z,17.17
2022-10-28T13:59:04.253Z,17.92
2022-10-28T14:01:43.746Z,15.93
2022-10-28T14:04:21.928Z,17.37
2022-10-28T14:06:48.805Z,17.37
2022-10-28T14:09:21.936Z,17.17
2022-10-28T14:12:04.184Z,18.25
2022-10-28T14:14:31.359Z,17.77
2022-10-28T14:16:58.260Z,17.85
2022-10-28T14:19:25.269Z,17.45
2022-10-28T14:22:02.303Z,17.80
2022-10-28T14:24:43.540Z,17.58
2022-10-28T14:27:15.287Z,15.60
2022-10-28T14:29:49.251Z,16.65
2022-10-28T14:32:31.384Z,18.23
2022-10-28T14:35:10.277Z,21.10
2022-10-28T14:38:21.238Z,17.87
2022-10-28T14:46:33.991Z,15.70
2022-10-28T14:49:03.218Z,18.27
2022-10-28T14:51:41.784Z,18.95
2022-10-28T14:54:29.588Z,17.87
2022-10-28T14:56:57.586Z,18.92
2022-10-28T14:59:40.613Z,19.30
2022-10-28T15:02:28.444Z,18.77
2022-10-28T15:05:16.474Z,19.62
2022-10-28T15:07:43.603Z,18.12
2022-10-28T15:10:14.556Z,17.55
2022-10-28T15:12:43.677Z,17.52
2022-10-28T15:15:19.388Z,18.45
2022-10-28T15:17:46.320Z,19.20
2022-10-28T15:20:24.583Z,19.55
2022-10-28T15:22:52.760Z,19.65
2022-10-28T15:25:22.172Z,19.00
2022-10-28T15:27:52.582Z,19.52
2022-10-28T15:32:54.516Z,20.20
2022-10-28T15:35:27.229Z,20.48
2022-10-28T15:37:55.326Z,18.85
2022-10-28T15:40:33.203Z,20.10
2022-10-28T15:43:17.326Z,18.90
2022-10-28T15:45:45.249Z,19.83
2022-10-28T15:48:14.848Z,19.25
2022-10-28T15:50:41.756Z,19.83
2022-10-28T15:53:11.461Z,21.98
2022-10-28T15:56:06.940Z,20.88
2022-10-28T15:58:50.125Z,20.08
2022-10-28T16:03:57.724Z,20.95
2022-10-28T16:06:33.637Z,21.65
2022-10-28T16:09:01.981Z,21.55
2022-10-28T16:11:29.645Z,22.08
2022-10-28T16:13:56.613Z,22.30
2022-10-28T16:16:28.241Z,21.25
2022-10-28T16:19:09.193Z,22.40
2022-10-28T16:21:37.020Z,21.10
2022-10-28T16:24:04.187Z,22.23
2022-10-28T16:26:32.897Z,22.33
2022-10-28T16:29:00.050Z,25.95
2022-10-28T16:31:28.551Z,24.65
2022-10-28T16:33:55.509Z,23.52
2022-10-28T16:36:22.610Z,25.52
2022-10-28T16:38:49.484Z,23.92
2022-10-28T16:41:18.444Z,24.08
2022-10-28T16:43:46.080Z,23.17
2022-10-28T16:46:13.768Z,22.10
2022-10-28T16:48:41.021Z,24.63
2022-10-28T16:51:26.102Z,23.60
2022-10-28T16:53:52.944Z,21.85
2022-10-28T16:56:20.040Z,22.75
2022-10-28T16:58:46.924Z,25.02
2022-10-28T17:01:17.426Z,25.73
2022-10-28T17:03:44.647Z,25.80
2022-10-28T17:06:11.520Z,26.95
2022-10-28T17:11:25.507Z,26.25
2022-10-28T17:13:52.401Z,26.98
2022-10-28T17:16:19.245Z,24.25
2022-10-28T17:18:49.555Z,26.77
2022-10-28T17:21:16.437Z,25.45
2022-10-28T17:23:43.310Z,26.45
2022-10-28T17:26:10.565Z,27.17
2022-10-28T17:28:37.408Z,26.00
2022-10-28T17:31:05.881Z,25.58
2022-10-28T17:33:33.550Z,28.30
2022-10-28T17:36:05.261Z,24.77
2022-10-28T17:38:32.361Z,24.48
2022-10-28T17:40:59.284Z,27.62
2022-10-28T17:43:26.207Z,25.85
2022-10-28T17:45:55.000Z,27.52
2022-10-28T17:48:21.856Z,28.70
2022-10-28T17:50:55.181Z,26.05
2022-10-28T17:53:22.289Z,26.23
2022-10-28T17:55:58.963Z,27.05
2022-10-28T17:58:26.444Z,27.20
2022-10-28T18:01:04.981Z,28.10
2022-10-28T18:03:38.114Z,29.42
2022-10-28T18:06:08.162Z,28.58
2022-10-28T18:08:37.459Z,29.55
2022-10-28T18:11:05.074Z,29.60
2022-10-28T18:13:36.720Z,29.10
2022-10-28T18:16:12.088Z,29.90
2022-10-28T18:18:42.704Z,30.25
2022-10-28T18:21:11.267Z,29.40
2022-10-28T18:23:41.376Z,30.75
2022-10-28T18:26:11.759Z,32.10
2022-10-28T18:31:14.579Z,29.02
2022-10-28T18:33:42.489Z,27.48
2022-10-28T18:36:14.847Z,31.08
2022-10-28T18:38:42.311Z,29.30
2022-10-28T18:41:16.533Z,26.80
2022-10-28T18:43:43.748Z,28.55
2022-10-28T18:46:10.806Z,28.42
2022-10-28T18:48:37.700Z,28.98
2022-10-28T18:51:07.116Z,29.15
2022-10-28T18:53:38.138Z,28.83
2022-10-28T18:56:06.729Z,29.52
2022-10-28T18:58:33.668Z,29.70
2022-10-28T19:01:08.594Z,28.58
2022-10-28T19:03:36.511Z,31.60
2022-10-28T19:06:16.028Z,29.98
2022-10-28T19:08:43.762Z,30.23
2022-10-28T19:11:12.343Z,29.63
2022-10-28T19:13:41.153Z,29.50
2022-10-28T19:16:09.038Z,28.60
2022-10-28T19:18:38.167Z,31.30
2022-10-28T19:21:12.419Z,28.33
2022-10-28T19:23:39.899Z,27.15
2022-10-28T19:26:07.337Z,28.58
2022-10-28T19:28:39.390Z,26.05
2022-10-28T19:31:09.316Z,27.48
2022-10-28T19:33:38.309Z,28.00
2022-10-28T19:36:07.940Z,27.92
2022-10-28T19:38:37.140Z,27.92
2022-10-28T19:41:09.646Z,27.70
2022-10-28T19:43:36.992Z,25.95
2022-10-28T19:46:10.270Z,28.25
2022-10-28T19:48:39.099Z,26.48
2022-10-28T19:51:06.377Z,25.30
2022-10-28T19:53:33.223Z,25.05
2022-10-28T19:56:03.285Z,26.00
2022-10-28T19:58:31.037Z,25.23
2022-10-28T20:01:04.109Z,26.48
2022-10-28T20:03:34.502Z,24.70
2022-10-28T20:06:07.520Z,27.77
2022-10-28T20:08:46.277Z,26.37
2022-10-28T20:11:26.285Z,26.73
2022-10-28T20:13:54.534Z,27.23
2022-10-28T20:16:21.758Z,28.77
2022-10-28T20:18:48.638Z,26.52
2022-10-28T20:21:17.844Z,28.00
2022-10-28T20:23:46.401Z,28.12
2022-10-28T20:26:13.822Z,25.20
2022-10-28T20:28:40.944Z,25.80
2022-10-28T20:31:10.596Z,26.30
2022-10-28T20:33:39.356Z,24.23
2022-10-28T20:36:08.352Z,25.12
2022-10-28T20:38:35.193Z,25.67
2022-10-28T20:41:02.114Z,24.00
2022-10-28T20:43:29.505Z,24.17
2022-10-28T20:46:00.967Z,24.65
2022-10-28T20:48:29.055Z,23.45
2022-10-28T20:50:58.163Z,22.62
2022-10-28T20:53:26.449Z,23.08
2022-10-28T20:55:55.857Z,22.92
2022-10-28T20:58:24.737Z,22.97
2022-10-28T21:00:53.388Z,23.05
2022-10-28T21:03:21.268Z,21.05
2022-10-28T21:05:48.389Z,21.42
2022-10-28T21:08:15.231Z,21.05
2022-10-28T21:10:42.081Z,20.90
2022-10-28T21:13:09.249Z,20.52
2022-10-28T21:15:40.130Z,21.62
2022-10-28T21:18:08.204Z,21.60
2022-10-28T21:20:36.402Z,21.45
2022-10-28T21:23:03.831Z,19.48
2022-10-28T21:25:30.876Z,20.08
2022-10-28T21:27:58.952Z,20.42
2022-10-28T21:30:27.120Z,20.02
2022-10-28T21:32:54.532Z,20.05
2022-10-28T21:35:22.254Z,21.23
2022-10-28T21:37:49.293Z,19.80
2022-10-28T21:40:16.203Z,21.15
2022-10-28T21:42:48.225Z,20.20
2022-10-28T21:45:15.169Z,21.70
2022-10-28T21:47:42.011Z,20.70
2022-10-28T21:50:09.228Z,21.67
2022-10-28T21:52:36.089Z,21.20
2022-10-28T21:55:09.795Z,22.15
2022-10-28T21:57:47.986Z,20.10
2022-10-28T22:00:15.001Z,20.02
2022-10-28T22:02:42.192Z,21.15
2022-10-28T22:05:09.213Z,19.62
2022-10-28T22:07:36.080Z,23.00
2022-10-28T22:10:03.323Z,22.83
2022-10-28T22:12:30.331Z,21.83
2022-10-28T22:14:57.168Z,20.15
2022-10-28T22:17:24.263Z,21.92
2022-10-28T22:19:52.362Z,22.17
2022-10-28T22:22:22.101Z,21.98
2022-10-28T22:24:52.675Z,22.58
2022-10-28T22:27:22.580Z,22.05
2022-10-28T22:29:52.816Z,22.05
2022-10-28T22:32:22.672Z,22.90
2022-10-28T22:34:49.803Z,21.75
2022-10-28T22:37:16.661Z,21.45
2022-10-28T22:39:46.196Z,21.65
2022-10-28T22:42:13.297Z,24.77
2022-10-28T22:44:40.157Z,23.05
2022-10-28T22:47:07.014Z,24.48
2022-10-28T22:49:34.144Z,24.20
2022-10-28T22:52:00.998Z,23.10
2022-10-28T22:54:27.856Z,23.83
2022-10-28T22:56:54.972Z,24.52
2022-10-28T22:59:21.885Z,23.85
2022-10-28T23:01:48.847Z,24.50
2022-10-28T23:04:16.055Z,24.58
2022-10-28T23:06:43.045Z,24.50
2022-10-28T23:09:10.941Z,23.27
2022-10-28T23:11:38.043Z,23.23
2022-10-28T23:14:04.931Z,22.30
2022-10-28T23:16:31.786Z,22.60
2022-10-28T23:19:00.686Z,23.00
2022-10-28T23:21:27.769Z,21.62
2022-10-28T23:23:56.143Z,22.80
2022-10-28T23:26:23.471Z,22.58
2022-10-28T23:28:54.958Z,22.87
2022-10-28T23:31:22.312Z,21.62
2022-10-28T23:33:49.805Z,21.98
2022-10-28T23:36:17.018Z,23.20
2022-10-28T23:38:43.913Z,21.62
2022-10-28T23:41:15.648Z,22.20
2022-10-28T23:43:42.887Z,22.45
2022-10-28T23:46:10.563Z,23.33
2022-10-28T23:48:37.803Z,21.75
2022-10-28T23:51:04.834Z,23.00
2022-10-28T23:53:31.956Z,21.98
2022-10-28T23:55:58.809Z,22.77
2022-10-28T23:58:25.653Z,21.25
